sensor_id;sensor_type;location;lat;lon;timestamp;P1;durP1;ratioP1;P2;durP2;ratioP2
19897;SDS011;10111;50.814;4.572;2022-08-16T00:00:40;7.83;;;7.03;;
19897;SDS011;10111;50.814;4.572;2022-08-16T00:03:08;8.03;;;7.20;;
19897;SDS011;10111;50.814;4.572;2022-08-16T00:05:35;9.30;;;7.70;;
19897;SDS011;10111;50.814;4.572;2022-08-16T00:08:01;9.57;;;7.73;;
19897;SDS011;10111;50.814;4.572;2022-08-16T00:10:28;7.70;;;6.90;;
19897;SDS011;10111;50.814;4.572;2022-08-16T00:12:57;9.77;;;8.37;;
19897;SDS011;10111;50.814;4.572;2022-08-16T00:15:25;10.13;;;7.57;;
19897;SDS011;10111;50.814;4.572;2022-08-16T00:17:56;12.20;;;8.27;;
19897;SDS011;10111;50.814;4.572;2022-08-16T00:20:22;11.20;;;7.83;;
19897;SDS011;10111;50.814;4.572;2022-08-16T00:22:48;9.30;;;7.80;;
19897;SDS011;10111;50.814;4.572;2022-08-16T00:25:16;7.83;;;6.97;;
19897;SDS011;10111;50.814;4.572;2022-08-16T00:27:42;10.97;;;8.10;;
19897;SDS011;10111;50.814;4.572;2022-08-16T00:30:09;10.27;;;8.33;;
19897;SDS011;10111;50.814;4.572;2022-08-16T00:32:37;12.30;;;8.87;;
19897;SDS011;10111;50.814;4.572;2022-08-16T00:35:03;10.43;;;8.70;;
19897;SDS011;10111;50.814;4.572;2022-08-16T00:37:30;10.53;;;8.50;;
19897;SDS011;10111;50.814;4.572;2022-08-16T00:39:55;9.77;;;8.73;;
19897;SDS011;10111;50.814;4.572;2022-08-16T00:42:21;10.43;;;8.23;;
19897;SDS011;10111;50.814;4.572;2022-08-16T00:44:50;11.30;;;9.20;;
19897;SDS011;10111;50.814;4.572;2022-08-16T00:47:19;8.20;;;7.33;;
19897;SDS011;10111;50.814;4.572;2022-08-16T00:49:47;9.87;;;8.87;;
19897;SDS011;10111;50.814;4.572;2022-08-16T00:52:13;9.67;;;7.97;;
19897;SDS011;10111;50.814;4.572;2022-08-16T00:54:39;10.37;;;8.67;;
19897;SDS011;10111;50.814;4.572;2022-08-16T00:57:05;9.67;;;7.17;;
19897;SDS011;10111;50.814;4.572;2022-08-16T00:59:33;8.47;;;7.10;;
19897;SDS011;10111;50.814;4.572;2022-08-16T01:02:02;7.73;;;6.93;;
19897;SDS011;10111;50.814;4.572;2022-08-16T01:04:30;8.50;;;6.33;;
19897;SDS011;10111;50.814;4.572;2022-08-16T01:06:55;8.17;;;5.70;;
19897;SDS011;10111;50.814;4.572;2022-08-16T01:09:25;8.73;;;6.77;;
19897;SDS011;10111;50.814;4.572;2022-08-16T01:11:50;7.53;;;6.47;;
19897;SDS011;10111;50.814;4.572;2022-08-16T01:14:23;7.50;;;6.70;;
19897;SDS011;10111;50.814;4.572;2022-08-16T01:16:54;8.33;;;6.03;;
19897;SDS011;10111;50.814;4.572;2022-08-16T01:19:28;6.30;;;5.70;;
19897;SDS011;10111;50.814;4.572;2022-08-16T01:22:08;8.13;;;6.73;;
19897;SDS011;10111;50.814;4.572;2022-08-16T01:24:44;6.67;;;6.00;;
19897;SDS011;10111;50.814;4.572;2022-08-16T01:27:20;7.03;;;6.33;;
19897;SDS011;10111;50.814;4.572;2022-08-16T01:32:21;6.50;;;5.40;;
19897;SDS011;10111;50.814;4.572;2022-08-16T01:34:47;8.00;;;6.10;;
19897;SDS011;10111;50.814;4.572;2022-08-16T01:37:13;7.03;;;6.27;;
19897;SDS011;10111;50.814;4.572;2022-08-16T01:39:39;8.33;;;5.67;;
19897;SDS011;10111;50.814;4.572;2022-08-16T01:42:06;6.43;;;5.80;;
19897;SDS011;10111;50.814;4.572;2022-08-16T01:44:33;7.10;;;6.47;;
19897;SDS011;10111;50.814;4.572;2022-08-16T01:46:59;6.57;;;5.80;;
19897;SDS011;10111;50.814;4.572;2022-08-16T01:49:27;5.27;;;4.77;;
19897;SDS011;10111;50.814;4.572;2022-08-16T01:52:02;6.67;;;5.77;;
19897;SDS011;10111;50.814;4.572;2022-08-16T01:54:29;7.37;;;5.87;;
19897;SDS011;10111;50.814;4.572;2022-08-16T01:56:55;7.10;;;5.20;;
19897;SDS011;10111;50.814;4.572;2022-08-16T01:59:21;6.10;;;5.13;;
19897;SDS011;10111;50.814;4.572;2022-08-16T02:01:49;5.57;;;5.03;;
19897;SDS011;10111;50.814;4.572;2022-08-16T02:04:16;6.23;;;5.43;;
19897;SDS011;10111;50.814;4.572;2022-08-16T02:06:42;5.93;;;5.07;;
19897;SDS011;10111;50.814;4.572;2022-08-16T02:09:08;5.77;;;5.27;;
19897;SDS011;10111;50.814;4.572;2022-08-16T02:11:34;5.37;;;4.77;;
19897;SDS011;10111;50.814;4.572;2022-08-16T02:14:01;8.60;;;5.17;;
19897;SDS011;10111;50.814;4.572;2022-08-16T02:16:27;7.03;;;5.50;;
19897;SDS011;10111;50.814;4.572;2022-08-16T02:18:53;6.30;;;4.90;;
19897;SDS011;10111;50.814;4.572;2022-08-16T02:21:19;6.73;;;5.10;;
19897;SDS011;10111;50.814;4.572;2022-08-16T02:23:45;5.07;;;4.20;;
19897;SDS011;10111;50.814;4.572;2022-08-16T02:26:11;5.50;;;4.97;;
19897;SDS011;10111;50.814;4.572;2022-08-16T02:28:37;5.20;;;4.30;;
19897;SDS011;10111;50.814;4.572;2022-08-16T02:31:05;5.73;;;5.13;;
19897;SDS011;10111;50.814;4.572;2022-08-16T02:33:32;5.30;;;4.50;;
19897;SDS011;10111;50.814;4.572;2022-08-16T02:35:58;5.63;;;4.83;;
19897;SDS011;10111;50.814;4.572;2022-08-16T02:38:25;4.53;;;4.03;;
19897;SDS011;10111;50.814;4.572;2022-08-16T02:40:51;6.43;;;4.23;;
19897;SDS011;10111;50.814;4.572;2022-08-16T02:43:18;5.23;;;4.33;;
19897;SDS011;10111;50.814;4.572;2022-08-16T02:45:45;6.77;;;4.60;;
19897;SDS011;10111;50.814;4.572;2022-08-16T02:48:10;5.00;;;4.13;;
19897;SDS011;10111;50.814;4.572;2022-08-16T02:50:36;5.43;;;3.87;;
19897;SDS011;10111;50.814;4.572;2022-08-16T02:53:01;5.93;;;4.63;;
19897;SDS011;10111;50.814;4.572;2022-08-16T02:55:27;5.33;;;4.23;;
19897;SDS011;10111;50.814;4.572;2022-08-16T02:57:53;5.43;;;3.93;;
19897;SDS011;10111;50.814;4.572;2022-08-16T03:00:19;5.37;;;3.63;;
19897;SDS011;10111;50.814;4.572;2022-08-16T03:02:45;4.80;;;4.30;;
19897;SDS011;10111;50.814;4.572;2022-08-16T03:05:12;9.87;;;4.67;;
19897;SDS011;10111;50.814;4.572;2022-08-16T03:07:39;4.87;;;4.37;;
19897;SDS011;10111;50.814;4.572;2022-08-16T03:10:06;5.27;;;4.30;;
19897;SDS011;10111;50.814;4.572;2022-08-16T03:12:33;4.03;;;3.73;;
19897;SDS011;10111;50.814;4.572;2022-08-16T03:14:59;4.43;;;3.77;;
19897;SDS011;10111;50.814;4.572;2022-08-16T03:17:25;5.20;;;4.03;;
19897;SDS011;10111;50.814;4.572;2022-08-16T03:19:51;4.17;;;3.80;;
19897;SDS011;10111;50.814;4.572;2022-08-16T03:22:18;4.03;;;3.70;;
19897;SDS011;10111;50.814;4.572;2022-08-16T03:24:44;5.60;;;4.10;;
19897;SDS011;10111;50.814;4.572;2022-08-16T03:27:10;4.67;;;4.17;;
19897;SDS011;10111;50.814;4.572;2022-08-16T03:29:36;4.90;;;4.40;;
19897;SDS011;10111;50.814;4.572;2022-08-16T03:32:02;5.23;;;3.83;;
19897;SDS011;10111;50.814;4.572;2022-08-16T03:34:28;5.53;;;4.37;;
19897;SDS011;10111;50.814;4.572;2022-08-16T03:36:54;11.90;;;6.10;;
19897;SDS011;10111;50.814;4.572;2022-08-16T03:39:21;7.13;;;4.60;;
19897;SDS011;10111;50.814;4.572;2022-08-16T03:41:46;5.60;;;4.23;;
19897;SDS011;10111;50.814;4.572;2022-08-16T03:44:13;5.67;;;4.10;;
19897;SDS011;10111;50.814;4.572;2022-08-16T03:46:38;8.27;;;5.07;;
19897;SDS011;10111;50.814;4.572;2022-08-16T03:49:04;4.57;;;3.93;;
19897;SDS011;10111;50.814;4.572;2022-08-16T03:51:33;7.23;;;5.17;;
19897;SDS011;10111;50.814;4.572;2022-08-16T03:53:58;6.77;;;4.97;;
19897;SDS011;10111;50.814;4.572;2022-08-16T03:56:24;4.73;;;3.83;;
19897;SDS011;10111;50.814;4.572;2022-08-16T03:58:51;4.90;;;4.03;;
19897;SDS011;10111;50.814;4.572;2022-08-16T04:01:17;4.70;;;4.30;;
19897;SDS011;10111;50.814;4.572;2022-08-16T04:03:43;4.73;;;4.33;;
19897;SDS011;10111;50.814;4.572;2022-08-16T04:06:09;5.07;;;4.57;;
19897;SDS011;10111;50.814;4.572;2022-08-16T04:08:34;6.87;;;5.33;;
19897;SDS011;10111;50.814;4.572;2022-08-16T04:11:00;6.13;;;4.50;;
19897;SDS011;10111;50.814;4.572;2022-08-16T04:13:27;7.43;;;4.57;;
19897;SDS011;10111;50.814;4.572;2022-08-16T04:15:55;5.20;;;4.70;;
19897;SDS011;10111;50.814;4.572;2022-08-16T04:18:23;5.87;;;4.93;;
19897;SDS011;10111;50.814;4.572;2022-08-16T04:20:50;4.67;;;4.10;;
19897;SDS011;10111;50.814;4.572;2022-08-16T04:23:16;5.43;;;4.53;;
19897;SDS011;10111;50.814;4.572;2022-08-16T04:25:42;6.70;;;5.40;;
19897;SDS011;10111;50.814;4.572;2022-08-16T04:28:07;5.53;;;4.60;;
19897;SDS011;10111;50.814;4.572;2022-08-16T04:30:33;7.30;;;5.47;;
19897;SDS011;10111;50.814;4.572;2022-08-16T04:32:59;5.73;;;4.90;;
19897;SDS011;10111;50.814;4.572;2022-08-16T04:35:25;5.77;;;5.10;;
19897;SDS011;10111;50.814;4.572;2022-08-16T04:37:51;6.00;;;5.33;;
19897;SDS011;10111;50.814;4.572;2022-08-16T04:40:18;6.60;;;6.00;;
19897;SDS011;10111;50.814;4.572;2022-08-16T04:42:45;6.63;;;5.83;;
19897;SDS011;10111;50.814;4.572;2022-08-16T04:45:11;8.13;;;6.00;;
19897;SDS011;10111;50.814;4.572;2022-08-16T04:47:39;6.30;;;5.67;;
19897;SDS011;10111;50.814;4.572;2022-08-16T04:50:07;6.23;;;5.63;;
19897;SDS011;10111;50.814;4.572;2022-08-16T04:52:37;8.37;;;5.77;;
19897;SDS011;10111;50.814;4.572;2022-08-16T04:55:08;9.20;;;6.13;;
19897;SDS011;10111;50.814;4.572;2022-08-16T04:57:35;6.73;;;5.80;;
19897;SDS011;10111;50.814;4.572;2022-08-16T05:00:03;10.50;;;6.60;;
19897;SDS011;10111;50.814;4.572;2022-08-16T05:02:38;8.83;;;7.13;;
19897;SDS011;10111;50.814;4.572;2022-08-16T05:05:04;9.57;;;6.10;;
19897;SDS011;10111;50.814;4.572;2022-08-16T05:07:30;7.77;;;6.73;;
19897;SDS011;10111;50.814;4.572;2022-08-16T05:09:56;8.50;;;6.90;;
19897;SDS011;10111;50.814;4.572;2022-08-16T05:12:22;6.93;;;6.17;;
19897;SDS011;10111;50.814;4.572;2022-08-16T05:14:47;8.90;;;6.83;;
19897;SDS011;10111;50.814;4.572;2022-08-16T05:17:13;7.50;;;6.23;;
19897;SDS011;10111;50.814;4.572;2022-08-16T05:19:38;8.47;;;6.80;;
19897;SDS011;10111;50.814;4.572;2022-08-16T05:22:04;8.90;;;7.07;;
19897;SDS011;10111;50.814;4.572;2022-08-16T05:24:30;10.23;;;6.67;;
19897;SDS011;10111;50.814;4.572;2022-08-16T05:26:55;7.80;;;6.57;;
19897;SDS011;10111;50.814;4.572;2022-08-16T05:29:21;9.40;;;7.37;;
19897;SDS011;10111;50.814;4.572;2022-08-16T05:31:47;8.67;;;7.80;;
19897;SDS011;10111;50.814;4.572;2022-08-16T05:34:12;10.77;;;7.23;;
19897;SDS011;10111;50.814;4.572;2022-08-16T05:36:38;10.30;;;7.73;;
19897;SDS011;10111;50.814;4.572;2022-08-16T05:39:04;8.80;;;7.50;;
19897;SDS011;10111;50.814;4.572;2022-08-16T05:41:31;8.17;;;7.37;;
19897;SDS011;10111;50.814;4.572;2022-08-16T05:43:57;8.93;;;7.53;;
19897;SDS011;10111;50.814;4.572;2022-08-16T05:46:24;9.03;;;7.53;;
19897;SDS011;10111;50.814;4.572;2022-08-16T05:48:50;9.67;;;8.13;;
19897;SDS011;10111;50.814;4.572;2022-08-16T05:51:16;12.20;;;8.00;;
19897;SDS011;10111;50.814;4.572;2022-08-16T05:53:42;9.63;;;8.63;;
19897;SDS011;10111;50.814;4.572;2022-08-16T05:56:08;9.17;;;7.77;;
19897;SDS011;10111;50.814;4.572;2022-08-16T05:58:34;11.07;;;8.57;;
19897;SDS011;10111;50.814;4.572;2022-08-16T06:00:59;14.07;;;9.33;;
19897;SDS011;10111;50.814;4.572;2022-08-16T06:03:25;12.57;;;9.20;;
19897;SDS011;10111;50.814;4.572;2022-08-16T06:05:51;11.93;;;8.67;;
19897;SDS011;10111;50.814;4.572;2022-08-16T06:08:16;12.27;;;10.27;;
19897;SDS011;10111;50.814;4.572;2022-08-16T06:10:42;12.60;;;8.77;;
19897;SDS011;10111;50.814;4.572;2022-08-16T06:13:07;13.63;;;10.23;;
19897;SDS011;10111;50.814;4.572;2022-08-16T06:15:33;11.07;;;8.33;;
19897;SDS011;10111;50.814;4.572;2022-08-16T06:17:59;11.93;;;9.03;;
19897;SDS011;10111;50.814;4.572;2022-08-16T06:20:26;12.83;;;9.70;;
19897;SDS011;10111;50.814;4.572;2022-08-16T06:22:53;14.67;;;10.20;;
19897;SDS011;10111;50.814;4.572;2022-08-16T06:25:21;12.43;;;8.47;;
19897;SDS011;10111;50.814;4.572;2022-08-16T06:27:47;11.87;;;9.80;;
19897;SDS011;10111;50.814;4.572;2022-08-16T06:30:13;12.47;;;8.60;;
19897;SDS011;10111;50.814;4.572;2022-08-16T06:32:39;13.83;;;9.27;;
19897;SDS011;10111;50.814;4.572;2022-08-16T06:35:05;11.93;;;9.43;;
19897;SDS011;10111;50.814;4.572;2022-08-16T06:37:32;9.77;;;8.40;;
19897;SDS011;10111;50.814;4.572;2022-08-16T06:39:57;13.50;;;9.47;;
19897;SDS011;10111;50.814;4.572;2022-08-16T06:42:23;9.90;;;8.80;;
19897;SDS011;10111;50.814;4.572;2022-08-16T06:44:49;12.13;;;8.10;;
19897;SDS011;10111;50.814;4.572;2022-08-16T06:47:15;12.83;;;8.87;;
19897;SDS011;10111;50.814;4.572;2022-08-16T06:49:41;9.60;;;8.43;;
19897;SDS011;10111;50.814;4.572;2022-08-16T06:52:06;9.67;;;8.13;;
19897;SDS011;10111;50.814;4.572;2022-08-16T06:54:33;10.43;;;7.53;;
19897;SDS011;10111;50.814;4.572;2022-08-16T06:56:59;9.97;;;7.70;;
19897;SDS011;10111;50.814;4.572;2022-08-16T06:59:25;9.23;;;7.97;;
19897;SDS011;10111;50.814;4.572;2022-08-16T07:01:51;9.47;;;8.17;;
19897;SDS011;10111;50.814;4.572;2022-08-16T07:04:17;9.00;;;7.73;;
19897;SDS011;10111;50.814;4.572;2022-08-16T07:06:43;10.57;;;8.30;;
19897;SDS011;10111;50.814;4.572;2022-08-16T07:09:09;10.40;;;8.07;;
19897;SDS011;10111;50.814;4.572;2022-08-16T07:11:36;10.87;;;8.43;;
19897;SDS011;10111;50.814;4.572;2022-08-16T07:14:02;6.70;;;6.00;;
19897;SDS011;10111;50.814;4.572;2022-08-16T07:16:28;8.77;;;6.87;;
19897;SDS011;10111;50.814;4.572;2022-08-16T07:18:53;11.53;;;7.43;;
19897;SDS011;10111;50.814;4.572;2022-08-16T07:21:21;7.73;;;6.93;;
19897;SDS011;10111;50.814;4.572;2022-08-16T07:23:46;7.10;;;6.40;;
19897;SDS011;10111;50.814;4.572;2022-08-16T07:26:14;11.07;;;6.23;;
19897;SDS011;10111;50.814;4.572;2022-08-16T07:28:44;6.83;;;6.10;;
19897;SDS011;10111;50.814;4.572;2022-08-16T07:31:10;9.37;;;6.03;;
19897;SDS011;10111;50.814;4.572;2022-08-16T07:33:36;6.10;;;5.50;;
19897;SDS011;10111;50.814;4.572;2022-08-16T07:36:04;6.73;;;6.13;;
19897;SDS011;10111;50.814;4.572;2022-08-16T07:38:30;8.13;;;5.93;;
19897;SDS011;10111;50.814;4.572;2022-08-16T07:40:56;7.80;;;5.60;;
19897;SDS011;10111;50.814;4.572;2022-08-16T07:43:22;7.03;;;5.70;;
19897;SDS011;10111;50.814;4.572;2022-08-16T07:45:49;7.23;;;6.10;;
19897;SDS011;10111;50.814;4.572;2022-08-16T07:48:15;6.10;;;5.50;;
19897;SDS011;10111;50.814;4.572;2022-08-16T07:50:42;5.67;;;5.03;;
19897;SDS011;10111;50.814;4.572;2022-08-16T07:53:08;6.03;;;4.63;;
19897;SDS011;10111;50.814;4.572;2022-08-16T07:55:34;8.10;;;6.00;;
19897;SDS011;10111;50.814;4.572;2022-08-16T07:58:00;7.57;;;6.37;;
19897;SDS011;10111;50.814;4.572;2022-08-16T08:00:26;6.20;;;5.60;;
19897;SDS011;10111;50.814;4.572;2022-08-16T08:02:52;7.47;;;5.13;;
19897;SDS011;10111;50.814;4.572;2022-08-16T08:05:19;8.43;;;5.27;;
19897;SDS011;10111;50.814;4.572;2022-08-16T08:07:47;13.33;;;5.50;;
19897;SDS011;10111;50.814;4.572;2022-08-16T08:10:13;7.83;;;5.53;;
19897;SDS011;10111;50.814;4.572;2022-08-16T08:12:39;6.97;;;5.13;;
19897;SDS011;10111;50.814;4.572;2022-08-16T08:15:07;6.57;;;5.20;;
19897;SDS011;10111;50.814;4.572;2022-08-16T08:17:35;6.33;;;4.70;;
19897;SDS011;10111;50.814;4.572;2022-08-16T08:20:03;6.40;;;4.57;;
19897;SDS011;10111;50.814;4.572;2022-08-16T08:22:31;5.67;;;5.10;;
19897;SDS011;10111;50.814;4.572;2022-08-16T08:24:57;5.33;;;4.30;;
19897;SDS011;10111;50.814;4.572;2022-08-16T08:27:23;7.27;;;5.33;;
19897;SDS011;10111;50.814;4.572;2022-08-16T08:29:48;5.37;;;4.87;;
19897;SDS011;10111;50.814;4.572;2022-08-16T08:32:14;6.83;;;5.00;;
19897;SDS011;10111;50.814;4.572;2022-08-16T08:34:40;5.17;;;4.67;;
19897;SDS011;10111;50.814;4.572;2022-08-16T08:37:06;7.20;;;4.83;;
19897;SDS011;10111;50.814;4.572;2022-08-16T08:39:32;5.47;;;4.33;;
19897;SDS011;10111;50.814;4.572;2022-08-16T08:41:58;4.90;;;4.40;;
19897;SDS011;10111;50.814;4.572;2022-08-16T08:44:26;5.57;;;5.00;;
19897;SDS011;10111;50.814;4.572;2022-08-16T08:46:52;4.23;;;3.83;;
19897;SDS011;10111;50.814;4.572;2022-08-16T08:49:21;7.30;;;3.93;;
19897;SDS011;10111;50.814;4.572;2022-08-16T08:51:47;5.17;;;4.60;;
19897;SDS011;10111;50.814;4.572;2022-08-16T08:54:12;6.67;;;4.80;;
19897;SDS011;10111;50.814;4.572;2022-08-16T08:56:38;5.97;;;4.47;;
19897;SDS011;10111;50.814;4.572;2022-08-16T08:59:05;8.00;;;5.17;;
19897;SDS011;10111;50.814;4.572;2022-08-16T09:01:34;5.57;;;4.50;;
19897;SDS011;10111;50.814;4.572;2022-08-16T09:04:01;6.87;;;4.60;;
19897;SDS011;10111;50.814;4.572;2022-08-16T09:06:28;7.00;;;5.63;;
19897;SDS011;10111;50.814;4.572;2022-08-16T09:08:56;6.57;;;5.00;;
19897;SDS011;10111;50.814;4.572;2022-08-16T09:11:23;5.93;;;5.33;;
19897;SDS011;10111;50.814;4.572;2022-08-16T09:13:50;6.00;;;5.50;;
19897;SDS011;10111;50.814;4.572;2022-08-16T09:16:16;8.87;;;5.70;;
19897;SDS011;10111;50.814;4.572;2022-08-16T09:18:42;6.67;;;5.53;;
19897;SDS011;10111;50.814;4.572;2022-08-16T09:21:08;6.67;;;5.77;;
19897;SDS011;10111;50.814;4.572;2022-08-16T09:23:35;9.02;;;6.20;;
19897;SDS011;10111;50.814;4.572;2022-08-16T09:26:02;5.90;;;5.03;;
19897;SDS011;10111;50.814;4.572;2022-08-16T09:28:30;7.45;;;5.47;;
19897;SDS011;10111;50.814;4.572;2022-08-16T09:30:56;6.63;;;5.13;;
19897;SDS011;10111;50.814;4.572;2022-08-16T09:33:21;6.67;;;6.10;;
19897;SDS011;10111;50.814;4.572;2022-08-16T09:35:48;6.22;;;4.82;;
19897;SDS011;10111;50.814;4.572;2022-08-16T09:38:14;6.53;;;5.07;;
19897;SDS011;10111;50.814;4.572;2022-08-16T09:40:40;6.50;;;5.20;;
19897;SDS011;10111;50.814;4.572;2022-08-16T09:43:09;6.65;;;4.63;;
19897;SDS011;10111;50.814;4.572;2022-08-16T09:45:35;6.13;;;5.53;;
19897;SDS011;10111;50.814;4.572;2022-08-16T09:48:13;5.75;;;5.00;;
19897;SDS011;10111;50.814;4.572;2022-08-16T09:50:40;6.47;;;5.88;;
19897;SDS011;10111;50.814;4.572;2022-08-16T09:53:08;6.53;;;5.78;;
19897;SDS011;10111;50.814;4.572;2022-08-16T09:55:37;8.10;;;5.43;;
19897;SDS011;10111;50.814;4.572;2022-08-16T09:58:03;6.18;;;5.55;;
19897;SDS011;10111;50.814;4.572;2022-08-16T10:00:29;5.18;;;4.63;;
19897;SDS011;10111;50.814;4.572;2022-08-16T10:02:55;5.50;;;4.88;;
19897;SDS011;10111;50.814;4.572;2022-08-16T10:05:22;5.35;;;4.88;;
19897;SDS011;10111;50.814;4.572;2022-08-16T10:07:48;6.47;;;4.78;;
19897;SDS011;10111;50.814;4.572;2022-08-16T10:10:18;7.32;;;4.95;;
19897;SDS011;10111;50.814;4.572;2022-08-16T10:12:45;6.03;;;5.22;;
19897;SDS011;10111;50.814;4.572;2022-08-16T10:15:31;5.40;;;4.78;;
19897;SDS011;10111;50.814;4.572;2022-08-16T10:17:58;6.53;;;5.20;;
19897;SDS011;10111;50.814;4.572;2022-08-16T10:20:23;5.53;;;5.03;;
19897;SDS011;10111;50.814;4.572;2022-08-16T10:22:51;5.85;;;4.97;;
19897;SDS011;10111;50.814;4.572;2022-08-16T10:25:18;5.32;;;4.82;;
19897;SDS011;10111;50.814;4.572;2022-08-16T10:27:45;5.57;;;5.10;;
19897;SDS011;10111;50.814;4.572;2022-08-16T10:30:12;5.72;;;5.22;;
19897;SDS011;10111;50.814;4.572;2022-08-16T10:32:39;6.95;;;4.90;;
19897;SDS011;10111;50.814;4.572;2022-08-16T10:35:04;5.97;;;5.22;;
19897;SDS011;10111;50.814;4.572;2022-08-16T10:37:31;6.40;;;5.60;;
19897;SDS011;10111;50.814;4.572;2022-08-16T10:39:56;7.88;;;5.85;;
19897;SDS011;10111;50.814;4.572;2022-08-16T10:42:22;5.47;;;4.97;;
19897;SDS011;10111;50.814;4.572;2022-08-16T10:44:48;5.40;;;5.00;;
19897;SDS011;10111;50.814;4.572;2022-08-16T10:47:14;5.95;;;5.45;;
19897;SDS011;10111;50.814;4.572;2022-08-16T10:49:40;6.47;;;5.70;;
19897;SDS011;10111;50.814;4.572;2022-08-16T10:52:06;6.28;;;5.57;;
19897;SDS011;10111;50.814;4.572;2022-08-16T10:54:32;7.72;;;6.65;;
19897;SDS011;10111;50.814;4.572;2022-08-16T10:56:59;5.40;;;4.90;;
19897;SDS011;10111;50.814;4.572;2022-08-16T10:59:27;5.80;;;5.30;;
19897;SDS011;10111;50.814;4.572;2022-08-16T11:01:55;6.10;;;5.05;;
19897;SDS011;10111;50.814;4.572;2022-08-16T11:04:22;7.47;;;5.18;;
19897;SDS011;10111;50.814;4.572;2022-08-16T11:06:48;5.65;;;4.93;;
19897;SDS011;10111;50.814;4.572;2022-08-16T11:09:13;6.15;;;5.55;;
19897;SDS011;10111;50.814;4.572;2022-08-16T11:11:39;7.20;;;5.63;;
19897;SDS011;10111;50.814;4.572;2022-08-16T11:14:05;6.22;;;5.20;;
19897;SDS011;10111;50.814;4.572;2022-08-16T11:16:31;7.97;;;5.32;;
19897;SDS011;10111;50.814;4.572;2022-08-16T11:18:57;6.57;;;4.97;;
19897;SDS011;10111;50.814;4.572;2022-08-16T11:21:23;5.30;;;4.80;;
19897;SDS011;10111;50.814;4.572;2022-08-16T11:23:50;4.57;;;4.15;;
19897;SDS011;10111;50.814;4.572;2022-08-16T11:26:17;6.13;;;5.07;;
19897;SDS011;10111;50.814;4.572;2022-08-16T11:28:43;5.32;;;4.57;;
19897;SDS011;10111;50.814;4.572;2022-08-16T11:31:09;4.47;;;4.07;;
19897;SDS011;10111;50.814;4.572;2022-08-16T11:33:35;4.68;;;4.28;;
19897;SDS011;10111;50.814;4.572;2022-08-16T11:36:01;6.28;;;4.47;;
19897;SDS011;10111;50.814;4.572;2022-08-16T11:38:27;5.68;;;4.65;;
19897;SDS011;10111;50.814;4.572;2022-08-16T11:40:57;6.72;;;4.45;;
19897;SDS011;10111;50.814;4.572;2022-08-16T11:43:31;8.48;;;4.55;;
19897;SDS011;10111;50.814;4.572;2022-08-16T11:45:59;6.18;;;4.60;;
19897;SDS011;10111;50.814;4.572;2022-08-16T11:48:28;5.60;;;5.10;;
19897;SDS011;10111;50.814;4.572;2022-08-16T11:50:54;4.85;;;4.43;;
19897;SDS011;10111;50.814;4.572;2022-08-16T11:53:21;6.18;;;4.68;;
19897;SDS011;10111;50.814;4.572;2022-08-16T11:55:48;4.90;;;4.50;;
19897;SDS011;10111;50.814;4.572;2022-08-16T11:58:15;7.57;;;4.53;;
19897;SDS011;10111;50.814;4.572;2022-08-16T12:00:41;5.40;;;4.88;;
19897;SDS011;10111;50.814;4.572;2022-08-16T12:03:08;6.80;;;4.95;;
19897;SDS011;10111;50.814;4.572;2022-08-16T12:05:34;5.28;;;4.78;;
19897;SDS011;10111;50.814;4.572;2022-08-16T12:08:02;4.70;;;4.30;;
19897;SDS011;10111;50.814;4.572;2022-08-16T12:10:31;5.28;;;4.32;;
19897;SDS011;10111;50.814;4.572;2022-08-16T12:12:57;5.40;;;5.00;;
19897;SDS011;10111;50.814;4.572;2022-08-16T12:15:22;7.05;;;5.30;;
19897;SDS011;10111;50.814;4.572;2022-08-16T12:17:50;4.60;;;4.22;;
19897;SDS011;10111;50.814;4.572;2022-08-16T12:20:20;5.15;;;4.47;;
19897;SDS011;10111;50.814;4.572;2022-08-16T12:22:51;5.30;;;4.80;;
19897;SDS011;10111;50.814;4.572;2022-08-16T12:25:17;5.60;;;5.10;;
19897;SDS011;10111;50.814;4.572;2022-08-16T12:27:45;5.53;;;4.97;;
19897;SDS011;10111;50.814;4.572;2022-08-16T12:30:13;7.00;;;4.82;;
19897;SDS011;10111;50.814;4.572;2022-08-16T12:32:41;7.35;;;4.90;;
19897;SDS011;10111;50.814;4.572;2022-08-16T12:35:09;5.50;;;4.65;;
19897;SDS011;10111;50.814;4.572;2022-08-16T12:37:37;5.35;;;4.85;;
19897;SDS011;10111;50.814;4.572;2022-08-16T12:40:04;5.25;;;4.70;;
19897;SDS011;10111;50.814;4.572;2022-08-16T12:42:32;5.07;;;4.63;;
19897;SDS011;10111;50.814;4.572;2022-08-16T12:44:58;4.90;;;4.43;;
19897;SDS011;10111;50.814;4.572;2022-08-16T12:47:25;6.38;;;4.72;;
19897;SDS011;10111;50.814;4.572;2022-08-16T12:50:10;6.10;;;4.57;;
19897;SDS011;10111;50.814;4.572;2022-08-16T12:52:37;5.70;;;5.20;;
19897;SDS011;10111;50.814;4.572;2022-08-16T12:55:03;6.18;;;5.57;;
19897;SDS011;10111;50.814;4.572;2022-08-16T12:57:30;5.25;;;4.75;;
19897;SDS011;10111;50.814;4.572;2022-08-16T12:59:57;5.97;;;5.25;;
19897;SDS011;10111;50.814;4.572;2022-08-16T13:02:24;6.43;;;5.25;;
19897;SDS011;10111;50.814;4.572;2022-08-16T13:04:49;7.00;;;5.10;;
19897;SDS011;10111;50.814;4.572;2022-08-16T13:07:15;6.20;;;5.70;;
19897;SDS011;10111;50.814;4.572;2022-08-16T13:09:42;8.48;;;5.38;;
19897;SDS011;10111;50.814;4.572;2022-08-16T13:12:18;6.25;;;5.22;;
19897;SDS011;10111;50.814;4.572;2022-08-16T13:14:47;5.38;;;4.90;;
19897;SDS011;10111;50.814;4.572;2022-08-16T13:17:17;5.57;;;5.07;;
19897;SDS011;10111;50.814;4.572;2022-08-16T13:19:46;7.05;;;5.03;;
19897;SDS011;10111;50.814;4.572;2022-08-16T13:22:12;6.00;;;5.32;;
19897;SDS011;10111;50.814;4.572;2022-08-16T13:24:38;7.45;;;5.15;;
19897;SDS011;10111;50.814;4.572;2022-08-16T13:27:04;5.47;;;4.97;;
19897;SDS011;10111;50.814;4.572;2022-08-16T13:29:29;7.22;;;5.60;;
19897;SDS011;10111;50.814;4.572;2022-08-16T13:31:55;6.50;;;4.82;;
19897;SDS011;10111;50.814;4.572;2022-08-16T13:34:21;6.63;;;5.78;;
19897;SDS011;10111;50.814;4.572;2022-08-16T13:36:47;5.82;;;5.32;;
19897;SDS011;10111;50.814;4.572;2022-08-16T13:39:13;5.38;;;4.88;;
19897;SDS011;10111;50.814;4.572;2022-08-16T13:41:39;5.88;;;5.35;;
19897;SDS011;10111;50.814;4.572;2022-08-16T13:44:05;6.82;;;5.10;;
19897;SDS011;10111;50.814;4.572;2022-08-16T13:46:31;4.72;;;4.28;;
19897;SDS011;10111;50.814;4.572;2022-08-16T13:48:57;4.70;;;4.30;;
19897;SDS011;10111;50.814;4.572;2022-08-16T13:51:24;4.93;;;4.57;;
19897;SDS011;10111;50.814;4.572;2022-08-16T13:53:52;6.55;;;5.07;;
19897;SDS011;10111;50.814;4.572;2022-08-16T13:56:20;6.00;;;5.40;;
19897;SDS011;10111;50.814;4.572;2022-08-16T13:58:48;5.47;;;4.65;;
19897;SDS011;10111;50.814;4.572;2022-08-16T14:01:14;5.43;;;5.00;;
19897;SDS011;10111;50.814;4.572;2022-08-16T14:03:41;7.88;;;5.85;;
19897;SDS011;10111;50.814;4.572;2022-08-16T14:06:07;6.07;;;5.35;;
19897;SDS011;10111;50.814;4.572;2022-08-16T14:08:34;5.90;;;5.30;;
19897;SDS011;10111;50.814;4.572;2022-08-16T14:11:01;6.78;;;4.65;;
19897;SDS011;10111;50.814;4.572;2022-08-16T14:13:29;5.47;;;4.97;;
19897;SDS011;10111;50.814;4.572;2022-08-16T14:15:55;6.05;;;4.72;;
19897;SDS011;10111;50.814;4.572;2022-08-16T14:18:21;8.88;;;5.45;;
19897;SDS011;10111;50.814;4.572;2022-08-16T14:20:47;5.95;;;4.80;;
19897;SDS011;10111;50.814;4.572;2022-08-16T14:23:12;6.43;;;5.82;;
19897;SDS011;10111;50.814;4.572;2022-08-16T14:25:38;5.93;;;5.30;;
19897;SDS011;10111;50.814;4.572;2022-08-16T14:28:04;4.88;;;4.35;;
19897;SDS011;10111;50.814;4.572;2022-08-16T14:30:30;6.45;;;5.82;;
19897;SDS011;10111;50.814;4.572;2022-08-16T14:32:56;5.63;;;5.13;;
19897;SDS011;10111;50.814;4.572;2022-08-16T14:35:24;7.75;;;4.45;;
19897;SDS011;10111;50.814;4.572;2022-08-16T14:37:53;8.35;;;4.38;;
19897;SDS011;10111;50.814;4.572;2022-08-16T14:40:19;4.43;;;4.03;;
19897;SDS011;10111;50.814;4.572;2022-08-16T14:42:46;7.30;;;4.90;;
19897;SDS011;10111;50.814;4.572;2022-08-16T14:45:14;5.35;;;4.85;;